sensor_id;sensor_type;location;lat;lon;timestamp;P1;durP1;ratioP1;P2;durP2;ratioP2
48574;SDS011;34352;51.084;3.712;2022-12-18T00:30:58;153.87;;;65.40;;
48574;SDS011;34352;51.084;3.712;2022-12-18T01:20:03;121.50;;;48.97;;
48574;SDS011;34352;51.084;3.712;2022-12-18T01:22:34;130.97;;;50.37;;
48574;SDS011;34352;51.084;3.712;2022-12-18T01:50:18;119.37;;;47.20;;
48574;SDS011;34352;51.084;3.712;2022-12-18T01:53:06;105.50;;;45.00;;
48574;SDS011;34352;51.084;3.712;2022-12-18T02:34:30;105.70;;;41.97;;
48574;SDS011;34352;51.084;3.712;2022-12-18T02:37:13;94.83;;;41.07;;
48574;SDS011;34352;51.084;3.712;2022-12-18T02:47:44;97.97;;;40.93;;
48574;SDS011;34352;51.084;3.712;2022-12-18T03:14:11;93.80;;;38.67;;
48574;SDS011;34352;51.084;3.712;2022-12-18T03:16:45;98.43;;;39.40;;
48574;SDS011;34352;51.084;3.712;2022-12-18T03:27:02;97.43;;;39.75;;
48574;SDS011;34352;51.084;3.712;2022-12-18T03:34:43;97.57;;;37.23;;
48574;SDS011;34352;51.084;3.712;2022-12-18T03:39:40;86.07;;;34.37;;
48574;SDS011;34352;51.084;3.712;2022-12-18T03:44:57;81.27;;;35.07;;
48574;SDS011;34352;51.084;3.712;2022-12-18T03:47:53;77.80;;;33.25;;
48574;SDS011;34352;51.084;3.712;2022-12-18T03:55:32;88.30;;;36.57;;
48574;SDS011;34352;51.084;3.712;2022-12-18T03:58:04;79.40;;;33.60;;
48574;SDS011;34352;51.084;3.712;2022-12-18T04:00:33;77.57;;;33.10;;
48574;SDS011;34352;51.084;3.712;2022-12-18T04:03:01;82.57;;;36.37;;
48574;SDS011;34352;51.084;3.712;2022-12-18T04:05:31;83.03;;;35.50;;
48574;SDS011;34352;51.084;3.712;2022-12-18T04:08:14;84.97;;;34.93;;
48574;SDS011;34352;51.084;3.712;2022-12-18T04:10:41;82.33;;;34.43;;
48574;SDS011;34352;51.084;3.712;2022-12-18T04:13:10;79.60;;;33.87;;
48574;SDS011;34352;51.084;3.712;2022-12-18T04:24:18;85.87;;;35.77;;
48574;SDS011;34352;51.084;3.712;2022-12-18T04:32:20;84.40;;;35.20;;
48574;SDS011;34352;51.084;3.712;2022-12-18T04:34:56;87.13;;;36.17;;
48574;SDS011;34352;51.084;3.712;2022-12-18T04:37:22;87.00;;;35.43;;
48574;SDS011;34352;51.084;3.712;2022-12-18T04:39:54;89.20;;;35.57;;
48574;SDS011;34352;51.084;3.712;2022-12-18T04:42:19;87.55;;;35.50;;
48574;SDS011;34352;51.084;3.712;2022-12-18T04:44:52;83.90;;;36.13;;
48574;SDS011;34352;51.084;3.712;2022-12-18T04:47:22;85.07;;;34.27;;
48574;SDS011;34352;51.084;3.712;2022-12-18T04:49:52;82.13;;;35.40;;
48574;SDS011;34352;51.084;3.712;2022-12-18T04:52:19;83.93;;;34.67;;
48574;SDS011;34352;51.084;3.712;2022-12-18T04:54:48;80.13;;;34.07;;
48574;SDS011;34352;51.084;3.712;2022-12-18T04:57:14;69.97;;;32.10;;
48574;SDS011;34352;51.084;3.712;2022-12-18T05:02:31;75.60;;;31.37;;
48574;SDS011;34352;51.084;3.712;2022-12-18T05:07:44;79.07;;;32.60;;
48574;SDS011;34352;51.084;3.712;2022-12-18T05:15:27;72.80;;;30.77;;
48574;SDS011;34352;51.084;3.712;2022-12-18T05:18:03;70.72;;;31.92;;
48574;SDS011;34352;51.084;3.712;2022-12-18T05:20:38;72.93;;;29.17;;
48574;SDS011;34352;51.084;3.712;2022-12-18T05:23:04;80.67;;;31.67;;
48574;SDS011;34352;51.084;3.712;2022-12-18T05:25:33;72.63;;;31.50;;
48574;SDS011;34352;51.084;3.712;2022-12-18T05:30:51;67.03;;;28.93;;
48574;SDS011;34352;51.084;3.712;2022-12-18T05:33:18;72.23;;;30.30;;
48574;SDS011;34352;51.084;3.712;2022-12-18T05:35:50;67.03;;;30.23;;
48574;SDS011;34352;51.084;3.712;2022-12-18T05:38:20;70.53;;;30.37;;
48574;SDS011;34352;51.084;3.712;2022-12-18T06:01:38;64.57;;;28.50;;
48574;SDS011;34352;51.084;3.712;2022-12-18T06:04:06;63.33;;;28.57;;
48574;SDS011;34352;51.084;3.712;2022-12-18T06:06:32;64.60;;;28.57;;
48574;SDS011;34352;51.084;3.712;2022-12-18T06:08:58;66.90;;;28.67;;
48574;SDS011;34352;51.084;3.712;2022-12-18T06:13:58;64.93;;;29.80;;
48574;SDS011;34352;51.084;3.712;2022-12-18T06:21:24;60.77;;;25.67;;
48574;SDS011;34352;51.084;3.712;2022-12-18T06:23:54;61.03;;;27.20;;
48574;SDS011;34352;51.084;3.712;2022-12-18T06:26:26;61.30;;;26.87;;
48574;SDS011;34352;51.084;3.712;2022-12-18T06:28:53;57.57;;;26.20;;
48574;SDS011;34352;51.084;3.712;2022-12-18T06:31:19;59.57;;;26.50;;
48574;SDS011;34352;51.084;3.712;2022-12-18T06:33:48;61.53;;;27.33;;
48574;SDS011;34352;51.084;3.712;2022-12-18T06:36:25;64.77;;;27.03;;
48574;SDS011;34352;51.084;3.712;2022-12-18T06:38:51;55.87;;;25.50;;
48574;SDS011;34352;51.084;3.712;2022-12-18T06:41:22;61.13;;;26.77;;
48574;SDS011;34352;51.084;3.712;2022-12-18T06:43:48;57.47;;;26.50;;
48574;SDS011;34352;51.084;3.712;2022-12-18T06:46:19;56.83;;;26.70;;
48574;SDS011;34352;51.084;3.712;2022-12-18T06:48:47;58.90;;;25.93;;
48574;SDS011;34352;51.084;3.712;2022-12-18T06:51:17;53.87;;;24.20;;
48574;SDS011;34352;51.084;3.712;2022-12-18T06:53:53;62.75;;;26.08;;
48574;SDS011;34352;51.084;3.712;2022-12-18T06:56:27;53.90;;;24.90;;
48574;SDS011;34352;51.084;3.712;2022-12-18T06:58:58;55.50;;;25.00;;
48574;SDS011;34352;51.084;3.712;2022-12-18T07:01:28;57.87;;;26.00;;
48574;SDS011;34352;51.084;3.712;2022-12-18T07:03:56;52.27;;;23.13;;
48574;SDS011;34352;51.084;3.712;2022-12-18T07:09:07;51.93;;;23.70;;
48574;SDS011;34352;51.084;3.712;2022-12-18T07:11:36;51.03;;;23.17;;
48574;SDS011;34352;51.084;3.712;2022-12-18T07:14:02;47.30;;;23.07;;
48574;SDS011;34352;51.084;3.712;2022-12-18T07:16:37;48.53;;;22.63;;
48574;SDS011;34352;51.084;3.712;2022-12-18T07:22:00;48.77;;;23.23;;
48574;SDS011;34352;51.084;3.712;2022-12-18T07:24:26;51.43;;;22.50;;
48574;SDS011;34352;51.084;3.712;2022-12-18T07:26:52;49.70;;;23.33;;
48574;SDS011;34352;51.084;3.712;2022-12-18T07:29:18;46.70;;;21.73;;
48574;SDS011;34352;51.084;3.712;2022-12-18T07:31:50;45.93;;;22.83;;
48574;SDS011;34352;51.084;3.712;2022-12-18T07:34:23;41.03;;;19.83;;
48574;SDS011;34352;51.084;3.712;2022-12-18T07:36:49;51.20;;;22.77;;
48574;SDS011;34352;51.084;3.712;2022-12-18T07:39:15;51.37;;;22.27;;
48574;SDS011;34352;51.084;3.712;2022-12-18T07:41:41;45.03;;;21.47;;
48574;SDS011;34352;51.084;3.712;2022-12-18T07:44:10;44.40;;;23.30;;
48574;SDS011;34352;51.084;3.712;2022-12-18T07:46:37;45.77;;;22.03;;
48574;SDS011;34352;51.084;3.712;2022-12-18T07:49:16;40.27;;;20.30;;
48574;SDS011;34352;51.084;3.712;2022-12-18T07:51:41;44.33;;;21.13;;
48574;SDS011;34352;51.084;3.712;2022-12-18T07:54:09;41.70;;;20.90;;
48574;SDS011;34352;51.084;3.712;2022-12-18T07:56:51;39.80;;;20.57;;
48574;SDS011;34352;51.084;3.712;2022-12-18T07:59:17;48.07;;;22.03;;
48574;SDS011;34352;51.084;3.712;2022-12-18T08:01:44;40.37;;;21.23;;
48574;SDS011;34352;51.084;3.712;2022-12-18T08:04:10;43.93;;;21.83;;
48574;SDS011;34352;51.084;3.712;2022-12-18T08:06:36;39.60;;;19.57;;
48574;SDS011;34352;51.084;3.712;2022-12-18T08:09:02;38.13;;;18.27;;
48574;SDS011;34352;51.084;3.712;2022-12-18T08:11:28;46.37;;;21.43;;
48574;SDS011;34352;51.084;3.712;2022-12-18T08:13:55;41.00;;;21.10;;
48574;SDS011;34352;51.084;3.712;2022-12-18T08:16:25;41.10;;;21.97;;
48574;SDS011;34352;51.084;3.712;2022-12-18T08:19:12;38.20;;;19.30;;
48574;SDS011;34352;51.084;3.712;2022-12-18T08:21:41;37.37;;;18.50;;
48574;SDS011;34352;51.084;3.712;2022-12-18T09:05:37;32.22;;;17.92;;
48574;SDS011;34352;51.084;3.712;2022-12-18T09:08:05;32.27;;;17.67;;
48574;SDS011;34352;51.084;3.712;2022-12-18T09:10:32;34.83;;;17.37;;
48574;SDS011;34352;51.084;3.712;2022-12-18T18:18:15;55.70;;;23.38;;
48574;SDS011;34352;51.084;3.712;2022-12-18T18:39:28;63.30;;;26.83;;
